sensor_id;sensor_type;location;lat;lon;timestamp;temperature;humidity
42019;DHT22;27703;51.980;5.848;2023-06-22T00:01:27;21.90;94.00
42019;DHT22;27703;51.980;5.848;2023-06-22T00:03:53;21.90;94.00
42019;DHT22;27703;51.980;5.848;2023-06-22T00:06:18;21.90;94.00
42019;DHT22;27703;51.980;5.848;2023-06-22T00:08:44;21.90;94.00
42019;DHT22;27703;51.980;5.848;2023-06-22T00:11:10;21.90;94.00
42019;DHT22;27703;51.980;5.848;2023-06-22T00:13:35;21.80;93.90
42019;DHT22;27703;51.980;5.848;2023-06-22T00:16:01;21.80;94.00
42019;DHT22;27703;51.980;5.848;2023-06-22T00:18:26;21.80;94.10
42019;DHT22;27703;51.980;5.848;2023-06-22T00:20:54;21.70;94.10
42019;DHT22;27703;51.980;5.848;2023-06-22T00:23:23;21.70;94.20
42019;DHT22;27703;51.980;5.848;2023-06-22T00:25:49;21.70;94.20
42019;DHT22;27703;51.980;5.848;2023-06-22T00:28:15;21.70;94.30
42019;DHT22;27703;51.980;5.848;2023-06-22T00:30:40;21.70;94.30
42019;DHT22;27703;51.980;5.848;2023-06-22T00:33:06;21.70;94.40
42019;DHT22;27703;51.980;5.848;2023-06-22T00:35:33;21.60;94.40
42019;DHT22;27703;51.980;5.848;2023-06-22T00:38:00;21.60;94.50
42019;DHT22;27703;51.980;5.848;2023-06-22T00:40:27;21.60;94.50
42019;DHT22;27703;51.980;5.848;2023-06-22T00:42:53;21.60;94.60
42019;DHT22;27703;51.980;5.848;2023-06-22T00:45:19;21.50;94.60
42019;DHT22;27703;51.980;5.848;2023-06-22T00:47:44;21.50;94.70
42019;DHT22;27703;51.980;5.848;2023-06-22T00:50:16;21.50;94.80
42019;DHT22;27703;51.980;5.848;2023-06-22T00:52:43;21.40;94.80
42019;DHT22;27703;51.980;5.848;2023-06-22T00:55:11;21.40;94.90
42019;DHT22;27703;51.980;5.848;2023-06-22T00:57:37;21.40;94.90
42019;DHT22;27703;51.980;5.848;2023-06-22T01:00:03;21.40;95.00
42019;DHT22;27703;51.980;5.848;2023-06-22T01:02:33;21.30;95.00
42019;DHT22;27703;51.980;5.848;2023-06-22T01:04:59;21.30;95.00
42019;DHT22;27703;51.980;5.848;2023-06-22T01:07:44;21.30;95.10
42019;DHT22;27703;51.980;5.848;2023-06-22T01:10:21;21.40;95.10
42019;DHT22;27703;51.980;5.848;2023-06-22T01:12:55;21.30;95.20
42019;DHT22;27703;51.980;5.848;2023-06-22T01:15:39;21.30;95.30
42019;DHT22;27703;51.980;5.848;2023-06-22T01:18:08;21.20;95.30
42019;DHT22;27703;51.980;5.848;2023-06-22T01:20:35;21.20;95.30
42019;DHT22;27703;51.980;5.848;2023-06-22T01:31:03;21.10;95.40
42019;DHT22;27703;51.980;5.848;2023-06-22T01:33:33;21.10;95.50
42019;DHT22;27703;51.980;5.848;2023-06-22T01:36:01;21.00;95.50
42019;DHT22;27703;51.980;5.848;2023-06-22T01:38:29;21.00;95.60
42019;DHT22;27703;51.980;5.848;2023-06-22T01:40:57;21.00;95.60
42019;DHT22;27703;51.980;5.848;2023-06-22T01:43:25;21.00;95.60
42019;DHT22;27703;51.980;5.848;2023-06-22T01:45:51;21.00;95.60
42019;DHT22;27703;51.980;5.848;2023-06-22T01:48:18;21.00;95.60
42019;DHT22;27703;51.980;5.848;2023-06-22T01:50:45;21.00;95.60
42019;DHT22;27703;51.980;5.848;2023-06-22T01:53:11;21.00;95.60
42019;DHT22;27703;51.980;5.848;2023-06-22T01:55:36;21.00;95.70
42019;DHT22;27703;51.980;5.848;2023-06-22T01:58:02;21.00;95.70
42019;DHT22;27703;51.980;5.848;2023-06-22T02:00:29;21.00;95.70
42019;DHT22;27703;51.980;5.848;2023-06-22T02:02:59;21.00;95.70
42019;DHT22;27703;51.980;5.848;2023-06-22T02:05:28;21.00;95.70
42019;DHT22;27703;51.980;5.848;2023-06-22T02:08:15;20.80;95.70
42019;DHT22;27703;51.980;5.848;2023-06-22T02:10:44;20.90;95.70
42019;DHT22;27703;51.980;5.848;2023-06-22T02:13:13;20.90;95.70
42019;DHT22;27703;51.980;5.848;2023-06-22T02:15:39;20.80;95.70
42019;DHT22;27703;51.980;5.848;2023-06-22T02:18:05;20.80;95.70
42019;DHT22;27703;51.980;5.848;2023-06-22T02:20:31;20.80;96.00
42019;DHT22;27703;51.980;5.848;2023-06-22T02:22:56;20.80;95.80
42019;DHT22;27703;51.980;5.848;2023-06-22T02:25:22;20.80;95.80
42019;DHT22;27703;51.980;5.848;2023-06-22T02:27:48;20.80;95.80
42019;DHT22;27703;51.980;5.848;2023-06-22T02:30:14;20.80;95.80
42019;DHT22;27703;51.980;5.848;2023-06-22T02:32:41;20.70;95.80
42019;DHT22;27703;51.980;5.848;2023-06-22T02:35:08;20.80;95.90
42019;DHT22;27703;51.980;5.848;2023-06-22T02:37:39;20.70;96.00
42019;DHT22;27703;51.980;5.848;2023-06-22T02:40:07;20.70;96.00
42019;DHT22;27703;51.980;5.848;2023-06-22T02:42:34;20.70;96.10
42019;DHT22;27703;51.980;5.848;2023-06-22T02:45:00;20.70;96.10
42019;DHT22;27703;51.980;5.848;2023-06-22T02:47:26;20.70;96.20
42019;DHT22;27703;51.980;5.848;2023-06-22T02:49:51;20.70;96.30
42019;DHT22;27703;51.980;5.848;2023-06-22T02:52:17;20.60;96.30
42019;DHT22;27703;51.980;5.848;2023-06-22T02:54:42;20.60;96.40
42019;DHT22;27703;51.980;5.848;2023-06-22T02:57:10;20.60;96.40
42019;DHT22;27703;51.980;5.848;2023-06-22T02:59:39;20.50;96.50
42019;DHT22;27703;51.980;5.848;2023-06-22T03:02:06;20.50;96.70
42019;DHT22;27703;51.980;5.848;2023-06-22T03:04:31;20.50;96.80
42019;DHT22;27703;51.980;5.848;2023-06-22T03:06:57;20.50;96.80
42019;DHT22;27703;51.980;5.848;2023-06-22T03:09:26;20.50;96.80
42019;DHT22;27703;51.980;5.848;2023-06-22T03:11:53;20.50;96.90
42019;DHT22;27703;51.980;5.848;2023-06-22T03:14:19;20.50;96.90
42019;DHT22;27703;51.980;5.848;2023-06-22T03:16:45;20.50;96.90
42019;DHT22;27703;51.980;5.848;2023-06-22T03:19:10;20.50;96.90
42019;DHT22;27703;51.980;5.848;2023-06-22T03:21:37;20.50;96.90
42019;DHT22;27703;51.980;5.848;2023-06-22T03:24:07;20.50;97.00
42019;DHT22;27703;51.980;5.848;2023-06-22T03:26:33;20.50;97.00
42019;DHT22;27703;51.980;5.848;2023-06-22T03:28:59;20.50;97.10
42019;DHT22;27703;51.980;5.848;2023-06-22T03:31:25;20.50;97.10
42019;DHT22;27703;51.980;5.848;2023-06-22T03:33:51;20.50;97.20
42019;DHT22;27703;51.980;5.848;2023-06-22T03:36:19;20.50;97.30
42019;DHT22;27703;51.980;5.848;2023-06-22T03:38:45;20.50;97.40
42019;DHT22;27703;51.980;5.848;2023-06-22T03:41:11;20.50;97.50
42019;DHT22;27703;51.980;5.848;2023-06-22T03:43:37;20.50;97.60
42019;DHT22;27703;51.980;5.848;2023-06-22T03:46:02;20.50;97.70
42019;DHT22;27703;51.980;5.848;2023-06-22T03:48:28;20.50;97.80
42019;DHT22;27703;51.980;5.848;2023-06-22T03:50:54;20.50;97.80
42019;DHT22;27703;51.980;5.848;2023-06-22T03:53:19;20.50;97.90
42019;DHT22;27703;51.980;5.848;2023-06-22T03:55:52;20.50;98.00
42019;DHT22;27703;51.980;5.848;2023-06-22T03:58:21;20.50;98.00
42019;DHT22;27703;51.980;5.848;2023-06-22T04:00:47;20.40;98.00
42019;DHT22;27703;51.980;5.848;2023-06-22T04:03:14;20.40;98.10
42019;DHT22;27703;51.980;5.848;2023-06-22T04:05:40;20.40;98.10
42019;DHT22;27703;51.980;5.848;2023-06-22T04:08:06;20.40;98.20
42019;DHT22;27703;51.980;5.848;2023-06-22T04:10:32;20.40;98.20
42019;DHT22;27703;51.980;5.848;2023-06-22T04:12:57;20.40;98.30
42019;DHT22;27703;51.980;5.848;2023-06-22T04:15:23;20.40;98.30
42019;DHT22;27703;51.980;5.848;2023-06-22T04:17:48;20.40;98.30
42019;DHT22;27703;51.980;5.848;2023-06-22T04:20:14;20.40;98.40
42019;DHT22;27703;51.980;5.848;2023-06-22T04:22:40;20.40;98.50
42019;DHT22;27703;51.980;5.848;2023-06-22T04:25:06;20.40;98.50
42019;DHT22;27703;51.980;5.848;2023-06-22T04:27:33;20.40;98.60
42019;DHT22;27703;51.980;5.848;2023-06-22T04:30:06;20.40;98.60
42019;DHT22;27703;51.980;5.848;2023-06-22T04:32:33;20.40;98.70
42019;DHT22;27703;51.980;5.848;2023-06-22T04:34:59;20.40;98.80
42019;DHT22;27703;51.980;5.848;2023-06-22T04:37:27;20.50;98.80
42019;DHT22;27703;51.980;5.848;2023-06-22T04:39:52;20.40;98.80
42019;DHT22;27703;51.980;5.848;2023-06-22T04:42:18;20.40;98.90
42019;DHT22;27703;51.980;5.848;2023-06-22T04:44:43;20.40;98.90
42019;DHT22;27703;51.980;5.848;2023-06-22T04:47:09;20.40;99.00
42019;DHT22;27703;51.980;5.848;2023-06-22T04:49:36;20.50;99.10
42019;DHT22;27703;51.980;5.848;2023-06-22T04:52:10;20.50;99.10
42019;DHT22;27703;51.980;5.848;2023-06-22T04:54:37;20.50;99.40
42019;DHT22;27703;51.980;5.848;2023-06-22T04:57:05;20.50;99.20
42019;DHT22;27703;51.980;5.848;2023-06-22T04:59:36;20.50;99.20
42019;DHT22;27703;51.980;5.848;2023-06-22T05:02:04;20.60;99.20
42019;DHT22;27703;51.980;5.848;2023-06-22T05:04:31;20.50;99.30
42019;DHT22;27703;51.980;5.848;2023-06-22T05:06:58;20.60;99.30
42019;DHT22;27703;51.980;5.848;2023-06-22T05:09:24;20.60;99.30
42019;DHT22;27703;51.980;5.848;2023-06-22T05:11:52;20.70;99.30
42019;DHT22;27703;51.980;5.848;2023-06-22T05:14:18;20.70;99.30
42019;DHT22;27703;51.980;5.848;2023-06-22T05:16:44;20.70;99.30
42019;DHT22;27703;51.980;5.848;2023-06-22T05:19:10;20.80;99.30
42019;DHT22;27703;51.980;5.848;2023-06-22T05:21:36;20.80;99.30
42019;DHT22;27703;51.980;5.848;2023-06-22T05:24:02;20.80;99.20
42019;DHT22;27703;51.980;5.848;2023-06-22T05:26:32;20.90;99.30
42019;DHT22;27703;51.980;5.848;2023-06-22T05:28:59;20.90;99.20
42019;DHT22;27703;51.980;5.848;2023-06-22T05:31:26;20.90;99.20
42019;DHT22;27703;51.980;5.848;2023-06-22T05:33:53;20.90;99.20
42019;DHT22;27703;51.980;5.848;2023-06-22T05:36:19;21.00;99.30
42019;DHT22;27703;51.980;5.848;2023-06-22T05:38:55;20.90;99.20
42019;DHT22;27703;51.980;5.848;2023-06-22T05:41:21;21.00;99.20
42019;DHT22;27703;51.980;5.848;2023-06-22T05:43:47;21.10;99.30
42019;DHT22;27703;51.980;5.848;2023-06-22T05:46:12;21.10;99.30
42019;DHT22;27703;51.980;5.848;2023-06-22T05:48:38;21.20;99.30
42019;DHT22;27703;51.980;5.848;2023-06-22T05:51:03;21.20;99.30
42019;DHT22;27703;51.980;5.848;2023-06-22T05:53:29;21.20;99.20
42019;DHT22;27703;51.980;5.848;2023-06-22T05:55:54;21.30;99.30
42019;DHT22;27703;51.980;5.848;2023-06-22T05:58:20;21.20;99.20
42019;DHT22;27703;51.980;5.848;2023-06-22T06:00:45;21.30;99.20
42019;DHT22;27703;51.980;5.848;2023-06-22T06:03:12;21.30;99.20
42019;DHT22;27703;51.980;5.848;2023-06-22T06:05:37;21.40;99.20
42019;DHT22;27703;51.980;5.848;2023-06-22T06:08:05;21.40;99.10
42019;DHT22;27703;51.980;5.848;2023-06-22T06:10:35;21.50;99.10
42019;DHT22;27703;51.980;5.848;2023-06-22T06:13:00;21.50;99.00
42019;DHT22;27703;51.980;5.848;2023-06-22T06:15:30;21.60;99.00
42019;DHT22;27703;51.980;5.848;2023-06-22T06:17:56;21.70;98.90
42019;DHT22;27703;51.980;5.848;2023-06-22T06:20:24;21.70;98.90
42019;DHT22;27703;51.980;5.848;2023-06-22T06:22:50;21.80;98.90
42019;DHT22;27703;51.980;5.848;2023-06-22T06:25:16;21.90;98.80
42019;DHT22;27703;51.980;5.848;2023-06-22T06:27:43;22.00;98.70
42019;DHT22;27703;51.980;5.848;2023-06-22T06:30:11;22.10;98.70
42019;DHT22;27703;51.980;5.848;2023-06-22T06:32:36;22.10;98.60
42019;DHT22;27703;51.980;5.848;2023-06-22T06:35:06;22.20;98.50
42019;DHT22;27703;51.980;5.848;2023-06-22T06:37:36;22.20;98.50
42019;DHT22;27703;51.980;5.848;2023-06-22T06:40:03;22.30;98.40
42019;DHT22;27703;51.980;5.848;2023-06-22T06:42:30;22.40;98.30
42019;DHT22;27703;51.980;5.848;2023-06-22T06:44:56;22.40;98.20
42019;DHT22;27703;51.980;5.848;2023-06-22T06:47:22;22.50;98.20
42019;DHT22;27703;51.980;5.848;2023-06-22T06:49:48;22.60;98.10
42019;DHT22;27703;51.980;5.848;2023-06-22T06:52:13;22.70;98.00
42019;DHT22;27703;51.980;5.848;2023-06-22T06:54:39;22.80;97.90
42019;DHT22;27703;51.980;5.848;2023-06-22T06:57:04;22.90;97.80
42019;DHT22;27703;51.980;5.848;2023-06-22T06:59:30;23.00;97.70
42019;DHT22;27703;51.980;5.848;2023-06-22T07:01:55;23.10;97.50
42019;DHT22;27703;51.980;5.848;2023-06-22T07:04:21;23.20;97.50
42019;DHT22;27703;51.980;5.848;2023-06-22T07:06:47;23.30;97.40
42019;DHT22;27703;51.980;5.848;2023-06-22T07:09:12;23.30;97.30
42019;DHT22;27703;51.980;5.848;2023-06-22T07:11:38;23.40;97.30
42019;DHT22;27703;51.980;5.848;2023-06-22T07:14:03;23.50;97.10
42019;DHT22;27703;51.980;5.848;2023-06-22T07:16:29;23.50;97.00
42019;DHT22;27703;51.980;5.848;2023-06-22T07:18:56;23.50;97.00
42019;DHT22;27703;51.980;5.848;2023-06-22T07:21:22;23.40;96.90
42019;DHT22;27703;51.980;5.848;2023-06-22T07:23:47;23.40;97.00
42019;DHT22;27703;51.980;5.848;2023-06-22T07:26:13;23.40;97.00
42019;DHT22;27703;51.980;5.848;2023-06-22T07:28:39;23.50;97.00
42019;DHT22;27703;51.980;5.848;2023-06-22T07:31:06;23.50;96.90
42019;DHT22;27703;51.980;5.848;2023-06-22T07:33:31;23.60;96.80
42019;DHT22;27703;51.980;5.848;2023-06-22T07:35:57;23.60;96.70
42019;DHT22;27703;51.980;5.848;2023-06-22T07:38:23;23.70;96.70
42019;DHT22;27703;51.980;5.848;2023-06-22T07:40:48;23.70;96.60
42019;DHT22;27703;51.980;5.848;2023-06-22T07:43:14;23.70;96.50
42019;DHT22;27703;51.980;5.848;2023-06-22T07:45:40;23.80;96.50
42019;DHT22;27703;51.980;5.848;2023-06-22T07:48:07;23.70;96.60
42019;DHT22;27703;51.980;5.848;2023-06-22T07:50:33;23.80;96.50
42019;DHT22;27703;51.980;5.848;2023-06-22T07:52:58;23.90;96.40
42019;DHT22;27703;51.980;5.848;2023-06-22T07:55:24;24.00;96.20
42019;DHT22;27703;51.980;5.848;2023-06-22T07:57:49;24.20;96.10
42019;DHT22;27703;51.980;5.848;2023-06-22T08:00:17;24.30;96.00
42019;DHT22;27703;51.980;5.848;2023-06-22T08:02:45;24.40;95.90
42019;DHT22;27703;51.980;5.848;2023-06-22T08:05:11;24.40;95.80
42019;DHT22;27703;51.980;5.848;2023-06-22T08:07:38;24.50;95.80
42019;DHT22;27703;51.980;5.848;2023-06-22T08:10:10;24.40;95.80
42019;DHT22;27703;51.980;5.848;2023-06-22T08:12:36;24.50;95.80
42019;DHT22;27703;51.980;5.848;2023-06-22T08:15:02;24.50;95.70
42019;DHT22;27703;51.980;5.848;2023-06-22T08:17:28;24.50;95.70
42019;DHT22;27703;51.980;5.848;2023-06-22T08:19:54;24.60;95.70
42019;DHT22;27703;51.980;5.848;2023-06-22T08:22:19;24.60;95.70
42019;DHT22;27703;51.980;5.848;2023-06-22T08:24:45;24.60;95.60
42019;DHT22;27703;51.980;5.848;2023-06-22T08:27:11;24.70;95.50
42019;DHT22;27703;51.980;5.848;2023-06-22T08:29:41;24.70;95.40
42019;DHT22;27703;51.980;5.848;2023-06-22T08:32:09;24.70;95.30
42019;DHT22;27703;51.980;5.848;2023-06-22T08:34:35;24.70;95.20
42019;DHT22;27703;51.980;5.848;2023-06-22T08:37:00;24.80;95.20
42019;DHT22;27703;51.980;5.848;2023-06-22T08:39:26;24.90;94.90
42019;DHT22;27703;51.980;5.848;2023-06-22T08:41:53;25.00;94.70
42019;DHT22;27703;51.980;5.848;2023-06-22T08:44:19;25.20;94.50
42019;DHT22;27703;51.980;5.848;2023-06-22T08:46:45;25.50;94.30
42019;DHT22;27703;51.980;5.848;2023-06-22T08:49:10;25.70;94.00
42019;DHT22;27703;51.980;5.848;2023-06-22T08:51:36;25.80;93.70
42019;DHT22;27703;51.980;5.848;2023-06-22T08:54:02;25.80;93.50
42019;DHT22;27703;51.980;5.848;2023-06-22T08:56:27;25.70;93.40
42019;DHT22;27703;51.980;5.848;2023-06-22T08:58:53;25.70;93.50
42019;DHT22;27703;51.980;5.848;2023-06-22T09:01:18;25.60;93.60
42019;DHT22;27703;51.980;5.848;2023-06-22T09:03:44;25.50;93.60
42019;DHT22;27703;51.980;5.848;2023-06-22T09:06:19;25.50;93.60
42019;DHT22;27703;51.980;5.848;2023-06-22T09:08:44;25.50;93.50
42019;DHT22;27703;51.980;5.848;2023-06-22T09:11:11;25.40;93.30
42019;DHT22;27703;51.980;5.848;2023-06-22T09:13:37;25.50;93.30
42019;DHT22;27703;51.980;5.848;2023-06-22T09:16:02;25.70;93.20
42019;DHT22;27703;51.980;5.848;2023-06-22T09:18:28;26.00;93.00
42019;DHT22;27703;51.980;5.848;2023-06-22T09:20:53;26.20;92.70
42019;DHT22;27703;51.980;5.848;2023-06-22T09:23:19;26.20;92.60
42019;DHT22;27703;51.980;5.848;2023-06-22T09:25:45;26.20;92.60
42019;DHT22;27703;51.980;5.848;2023-06-22T09:28:12;26.20;92.50
42019;DHT22;27703;51.980;5.848;2023-06-22T09:30:38;26.20;92.40
42019;DHT22;27703;51.980;5.848;2023-06-22T09:33:03;26.20;92.70
42019;DHT22;27703;51.980;5.848;2023-06-22T09:35:29;26.10;92.20
42019;DHT22;27703;51.980;5.848;2023-06-22T09:37:54;26.10;92.20
42019;DHT22;27703;51.980;5.848;2023-06-22T09:40:20;26.00;92.20
42019;DHT22;27703;51.980;5.848;2023-06-22T09:42:45;26.00;92.00
42019;DHT22;27703;51.980;5.848;2023-06-22T09:45:11;25.90;91.80
42019;DHT22;27703;51.980;5.848;2023-06-22T09:47:37;25.90;91.80
42019;DHT22;27703;51.980;5.848;2023-06-22T09:50:03;25.80;92.10
42019;DHT22;27703;51.980;5.848;2023-06-22T09:52:28;25.70;91.60
42019;DHT22;27703;51.980;5.848;2023-06-22T09:54:54;25.70;91.50
42019;DHT22;27703;51.980;5.848;2023-06-22T09:57:19;25.60;91.60
42019;DHT22;27703;51.980;5.848;2023-06-22T09:59:45;25.60;91.60
42019;DHT22;27703;51.980;5.848;2023-06-22T10:02:11;25.50;91.60
42019;DHT22;27703;51.980;5.848;2023-06-22T10:04:36;25.50;91.70
42019;DHT22;27703;51.980;5.848;2023-06-22T10:07:02;25.50;91.70
42019;DHT22;27703;51.980;5.848;2023-06-22T10:09:28;25.40;91.70
42019;DHT22;27703;51.980;5.848;2023-06-22T10:11:54;25.40;91.90
42019;DHT22;27703;51.980;5.848;2023-06-22T10:14:19;25.40;91.90
42019;DHT22;27703;51.980;5.848;2023-06-22T10:16:45;25.30;91.90
42019;DHT22;27703;51.980;5.848;2023-06-22T10:19:11;25.30;92.00
42019;DHT22;27703;51.980;5.848;2023-06-22T10:21:36;25.30;91.90
42019;DHT22;27703;51.980;5.848;2023-06-22T10:24:02;25.30;92.00
42019;DHT22;27703;51.980;5.848;2023-06-22T10:26:35;25.30;92.00
42019;DHT22;27703;51.980;5.848;2023-06-22T10:29:01;25.20;91.90
42019;DHT22;27703;51.980;5.848;2023-06-22T10:31:27;25.20;91.80
42019;DHT22;27703;51.980;5.848;2023-06-22T10:33:53;25.20;91.80
42019;DHT22;27703;51.980;5.848;2023-06-22T10:36:19;25.20;91.70
42019;DHT22;27703;51.980;5.848;2023-06-22T10:38:45;25.30;91.70
42019;DHT22;27703;51.980;5.848;2023-06-22T10:41:12;25.30;91.70
42019;DHT22;27703;51.980;5.848;2023-06-22T10:43:38;25.30;91.70
42019;DHT22;27703;51.980;5.848;2023-06-22T10:46:03;25.30;91.60
42019;DHT22;27703;51.980;5.848;2023-06-22T10:48:29;25.30;91.50
42019;DHT22;27703;51.980;5.848;2023-06-22T10:50:54;25.30;91.50
42019;DHT22;27703;51.980;5.848;2023-06-22T10:53:20;25.40;91.50
42019;DHT22;27703;51.980;5.848;2023-06-22T10:55:47;25.40;91.90
42019;DHT22;27703;51.980;5.848;2023-06-22T10:58:12;25.40;91.70
42019;DHT22;27703;51.980;5.848;2023-06-22T11:00:38;25.40;91.70
42019;DHT22;27703;51.980;5.848;2023-06-22T11:03:03;25.40;91.70
42019;DHT22;27703;51.980;5.848;2023-06-22T11:05:29;25.50;91.90
42019;DHT22;27703;51.980;5.848;2023-06-22T11:07:54;25.50;92.00
42019;DHT22;27703;51.980;5.848;2023-06-22T11:10:20;25.40;92.00
42019;DHT22;27703;51.980;5.848;2023-06-22T11:12:46;25.40;92.10
42019;DHT22;27703;51.980;5.848;2023-06-22T11:15:11;25.40;92.00
42019;DHT22;27703;51.980;5.848;2023-06-22T11:17:37;25.40;92.00
42019;DHT22;27703;51.980;5.848;2023-06-22T11:20:03;25.40;92.00
42019;DHT22;27703;51.980;5.848;2023-06-22T11:22:39;25.40;92.00
42019;DHT22;27703;51.980;5.848;2023-06-22T11:25:05;25.50;92.00
42019;DHT22;27703;51.980;5.848;2023-06-22T11:27:31;25.50;92.10
42019;DHT22;27703;51.980;5.848;2023-06-22T11:29:57;25.40;92.20
42019;DHT22;27703;51.980;5.848;2023-06-22T11:32:23;25.40;92.40
42019;DHT22;27703;51.980;5.848;2023-06-22T11:34:48;25.30;92.50
42019;DHT22;27703;51.980;5.848;2023-06-22T11:37:14;25.20;92.70
42019;DHT22;27703;51.980;5.848;2023-06-22T11:39:41;25.10;92.90
42019;DHT22;27703;51.980;5.848;2023-06-22T11:42:07;25.00;93.00
42019;DHT22;27703;51.980;5.848;2023-06-22T11:44:33;24.90;93.20
42019;DHT22;27703;51.980;5.848;2023-06-22T11:46:59;24.80;93.50
42019;DHT22;27703;51.980;5.848;2023-06-22T11:49:26;24.70;93.70
42019;DHT22;27703;51.980;5.848;2023-06-22T11:51:52;24.60;94.30
42019;DHT22;27703;51.980;5.848;2023-06-22T11:54:18;24.50;94.20
42019;DHT22;27703;51.980;5.848;2023-06-22T11:56:43;24.40;94.30
42019;DHT22;27703;51.980;5.848;2023-06-22T11:59:09;24.30;94.50
42019;DHT22;27703;51.980;5.848;2023-06-22T12:01:34;24.20;94.70
42019;DHT22;27703;51.980;5.848;2023-06-22T12:04:00;24.10;94.80
42019;DHT22;27703;51.980;5.848;2023-06-22T12:06:25;24.10;95.10
42019;DHT22;27703;51.980;5.848;2023-06-22T12:08:51;24.00;95.50
42019;DHT22;27703;51.980;5.848;2023-06-22T12:11:17;23.90;95.90
42019;DHT22;27703;51.980;5.848;2023-06-22T12:13:42;23.80;96.10
42019;DHT22;27703;51.980;5.848;2023-06-22T12:16:08;23.70;96.40
42019;DHT22;27703;51.980;5.848;2023-06-22T12:18:33;23.70;96.60
42019;DHT22;27703;51.980;5.848;2023-06-22T12:20:59;23.60;96.90
42019;DHT22;27703;51.980;5.848;2023-06-22T12:23:24;23.50;97.20
42019;DHT22;27703;51.980;5.848;2023-06-22T12:25:50;23.30;97.60
42019;DHT22;27703;51.980;5.848;2023-06-22T12:28:16;23.20;98.00
42019;DHT22;27703;51.980;5.848;2023-06-22T12:30:41;23.10;98.50
42019;DHT22;27703;51.980;5.848;2023-06-22T12:33:07;22.90;98.80
42019;DHT22;27703;51.980;5.848;2023-06-22T12:35:32;22.70;99.20
42019;DHT22;27703;51.980;5.848;2023-06-22T12:37:58;22.60;99.70
42019;DHT22;27703;51.980;5.848;2023-06-22T12:40:24;22.50;99.90
42019;DHT22;27703;51.980;5.848;2023-06-22T12:42:50;22.40;99.90
42019;DHT22;27703;51.980;5.848;2023-06-22T12:45:15;22.40;99.90
42019;DHT22;27703;51.980;5.848;2023-06-22T12:47:41;22.40;99.90
42019;DHT22;27703;51.980;5.848;2023-06-22T12:50:07;22.30;99.90
42019;DHT22;27703;51.980;5.848;2023-06-22T12:52:33;22.30;99.90
42019;DHT22;27703;51.980;5.848;2023-06-22T12:54:58;22.20;99.90
42019;DHT22;27703;51.980;5.848;2023-06-22T12:57:25;22.20;99.90
42019;DHT22;27703;51.980;5.848;2023-06-22T12:59:51;22.20;99.90
42019;DHT22;27703;51.980;5.848;2023-06-22T13:02:16;22.20;99.90
42019;DHT22;27703;51.980;5.848;2023-06-22T13:04:42;22.20;99.90
42019;DHT22;27703;51.980;5.848;2023-06-22T13:07:08;22.30;99.90
42019;DHT22;27703;51.980;5.848;2023-06-22T13:09:36;22.30;99.90
42019;DHT22;27703;51.980;5.848;2023-06-22T13:12:01;22.30;99.90
42019;DHT22;27703;51.980;5.848;2023-06-22T13:14:27;22.30;99.90
42019;DHT22;27703;51.980;5.848;2023-06-22T13:16:53;22.40;99.90
42019;DHT22;27703;51.980;5.848;2023-06-22T13:19:18;22.30;99.90
42019;DHT22;27703;51.980;5.848;2023-06-22T13:21:44;22.40;99.90
42019;DHT22;27703;51.980;5.848;2023-06-22T13:24:09;22.30;99.90
42019;DHT22;27703;51.980;5.848;2023-06-22T13:26:35;22.30;99.90
42019;DHT22;27703;51.980;5.848;2023-06-22T13:29:01;22.30;99.90
42019;DHT22;27703;51.980;5.848;2023-06-22T13:31:26;22.30;99.90
42019;DHT22;27703;51.980;5.848;2023-06-22T13:33:52;22.30;99.90
42019;DHT22;27703;51.980;5.848;2023-06-22T13:36:18;22.30;99.90
42019;DHT22;27703;51.980;5.848;2023-06-22T13:38:44;22.20;99.90
42019;DHT22;27703;51.980;5.848;2023-06-22T13:41:10;22.20;99.90
42019;DHT22;27703;51.980;5.848;2023-06-22T13:43:35;22.20;99.90
42019;DHT22;27703;51.980;5.848;2023-06-22T13:46:01;22.20;99.90
42019;DHT22;27703;51.980;5.848;2023-06-22T13:48:26;22.10;99.90
42019;DHT22;27703;51.980;5.848;2023-06-22T13:50:54;22.10;99.90
42019;DHT22;27703;51.980;5.848;2023-06-22T13:53:19;22.00;99.90
42019;DHT22;27703;51.980;5.848;2023-06-22T13:55:45;22.00;99.90
42019;DHT22;27703;51.980;5.848;2023-06-22T13:58:12;21.90;99.90
42019;DHT22;27703;51.980;5.848;2023-06-22T14:00:37;21.90;99.90
42019;DHT22;27703;51.980;5.848;2023-06-22T14:03:03;21.70;99.90
42019;DHT22;27703;51.980;5.848;2023-06-22T14:05:29;21.70;99.90
42019;DHT22;27703;51.980;5.848;2023-06-22T14:07:54;21.60;99.90
42019;DHT22;27703;51.980;5.848;2023-06-22T14:10:20;21.60;99.90
42019;DHT22;27703;51.980;5.848;2023-06-22T14:12:45;21.60;99.90
42019;DHT22;27703;51.980;5.848;2023-06-22T14:15:11;21.60;99.90
42019;DHT22;27703;51.980;5.848;2023-06-22T14:17:36;21.50;99.90
42019;DHT22;27703;51.980;5.848;2023-06-22T14:20:02;21.40;99.90
42019;DHT22;27703;51.980;5.848;2023-06-22T14:22:28;21.40;99.90
42019;DHT22;27703;51.980;5.848;2023-06-22T14:24:55;21.30;99.90
42019;DHT22;27703;51.980;5.848;2023-06-22T14:27:23;21.30;99.90
42019;DHT22;27703;51.980;5.848;2023-06-22T14:29:48;21.20;99.90
42019;DHT22;27703;51.980;5.848;2023-06-22T14:32:14;21.30;99.90
42019;DHT22;27703;51.980;5.848;2023-06-22T14:34:39;21.20;99.90
42019;DHT22;27703;51.980;5.848;2023-06-22T14:37:06;21.30;99.90
42019;DHT22;27703;51.980;5.848;2023-06-22T14:39:33;21.20;99.90
42019;DHT22;27703;51.980;5.848;2023-06-22T14:41:58;21.30;99.90
42019;DHT22;27703;51.980;5.848;2023-06-22T14:44:26;21.30;99.90
42019;DHT22;27703;51.980;5.848;2023-06-22T14:46:51;21.30;99.90
42019;DHT22;27703;51.980;5.848;2023-06-22T14:49:17;21.20;99.90
42019;DHT22;27703;51.980;5.848;2023-06-22T14:51:42;21.10;99.90
42019;DHT22;27703;51.980;5.848;2023-06-22T14:54:08;21.10;99.90
42019;DHT22;27703;51.980;5.848;2023-06-22T14:56:33;21.00;99.90
42019;DHT22;27703;51.980;5.848;2023-06-22T14:58:59;21.00;99.90
42019;DHT22;27703;51.980;5.848;2023-06-22T15:01:25;21.00;99.90
42019;DHT22;27703;51.980;5.848;2023-06-22T15:03:50;21.00;99.90
42019;DHT22;27703;51.980;5.848;2023-06-22T15:06:16;20.90;99.90
42019;DHT22;27703;51.980;5.848;2023-06-22T15:08:42;20.90;99.90
42019;DHT22;27703;51.980;5.848;2023-06-22T15:11:08;20.90;99.90
42019;DHT22;27703;51.980;5.848;2023-06-22T15:13:34;20.90;99.90
42019;DHT22;27703;51.980;5.848;2023-06-22T15:16:01;20.80;99.90
42019;DHT22;27703;51.980;5.848;2023-06-22T15:18:28;20.80;99.90
42019;DHT22;27703;51.980;5.848;2023-06-22T15:20:54;20.80;99.90
42019;DHT22;27703;51.980;5.848;2023-06-22T15:23:20;20.70;99.90
42019;DHT22;27703;51.980;5.848;2023-06-22T15:25:46;20.70;99.90
42019;DHT22;27703;51.980;5.848;2023-06-22T15:28:12;20.60;99.90
42019;DHT22;27703;51.980;5.848;2023-06-22T15:30:37;20.60;99.90
42019;DHT22;27703;51.980;5.848;2023-06-22T15:33:03;20.60;99.90